sensor_id;sensor_type;location;lat;lon;timestamp;P1;durP1;ratioP1;P2;durP2;ratioP2
15130;SDS011;7666;50.920;4.628;2022-11-20T00:02:09;22.17;;;19.87;;
15130;SDS011;7666;50.920;4.628;2022-11-20T00:04:55;21.27;;;18.70;;
15130;SDS011;7666;50.920;4.628;2022-11-20T00:07:41;22.00;;;19.70;;
15130;SDS011;7666;50.920;4.628;2022-11-20T00:10:27;22.37;;;19.13;;
15130;SDS011;7666;50.920;4.628;2022-11-20T00:13:13;21.63;;;19.00;;
15130;SDS011;7666;50.920;4.628;2022-11-20T00:16:00;21.03;;;18.93;;
15130;SDS011;7666;50.920;4.628;2022-11-20T00:18:47;21.33;;;18.70;;
15130;SDS011;7666;50.920;4.628;2022-11-20T00:21:33;21.53;;;19.23;;
15130;SDS011;7666;50.920;4.628;2022-11-20T00:24:19;21.17;;;18.87;;
15130;SDS011;7666;50.920;4.628;2022-11-20T00:27:05;21.27;;;19.07;;
15130;SDS011;7666;50.920;4.628;2022-11-20T00:29:51;21.53;;;19.23;;
15130;SDS011;7666;50.920;4.628;2022-11-20T00:32:37;20.30;;;17.70;;
15130;SDS011;7666;50.920;4.628;2022-11-20T00:35:23;22.17;;;19.60;;
15130;SDS011;7666;50.920;4.628;2022-11-20T00:38:09;19.63;;;17.60;;
15130;SDS011;7666;50.920;4.628;2022-11-20T00:40:58;20.33;;;18.23;;
15130;SDS011;7666;50.920;4.628;2022-11-20T00:43:46;20.73;;;18.53;;
15130;SDS011;7666;50.920;4.628;2022-11-20T00:46:32;20.63;;;18.43;;
15130;SDS011;7666;50.920;4.628;2022-11-20T00:49:18;20.70;;;18.50;;
15130;SDS011;7666;50.920;4.628;2022-11-20T00:52:04;20.47;;;18.27;;
15130;SDS011;7666;50.920;4.628;2022-11-20T00:54:50;20.80;;;18.60;;
15130;SDS011;7666;50.920;4.628;2022-11-20T00:57:36;20.23;;;18.13;;
15130;SDS011;7666;50.920;4.628;2022-11-20T01:00:22;21.77;;;18.37;;
15130;SDS011;7666;50.920;4.628;2022-11-20T01:03:07;20.23;;;18.13;;
15130;SDS011;7666;50.920;4.628;2022-11-20T01:05:53;20.13;;;18.03;;
15130;SDS011;7666;50.920;4.628;2022-11-20T01:08:39;19.90;;;17.80;;
15130;SDS011;7666;50.920;4.628;2022-11-20T01:11:27;20.13;;;18.00;;
15130;SDS011;7666;50.920;4.628;2022-11-20T01:14:20;20.70;;;18.47;;
15130;SDS011;7666;50.920;4.628;2022-11-20T01:17:06;19.60;;;17.30;;
15130;SDS011;7666;50.920;4.628;2022-11-20T01:19:52;22.83;;;19.43;;
15130;SDS011;7666;50.920;4.628;2022-11-20T01:22:38;21.60;;;18.10;;
15130;SDS011;7666;50.920;4.628;2022-11-20T01:25:24;25.13;;;19.03;;
15130;SDS011;7666;50.920;4.628;2022-11-20T01:28:10;24.70;;;19.67;;
15130;SDS011;7666;50.920;4.628;2022-11-20T01:30:56;20.50;;;18.07;;
15130;SDS011;7666;50.920;4.628;2022-11-20T01:33:43;24.30;;;19.07;;
15130;SDS011;7666;50.920;4.628;2022-11-20T01:36:31;21.47;;;18.57;;
15130;SDS011;7666;50.920;4.628;2022-11-20T01:39:24;22.90;;;19.87;;
15130;SDS011;7666;50.920;4.628;2022-11-20T01:42:11;23.40;;;19.40;;
15130;SDS011;7666;50.920;4.628;2022-11-20T01:49:22;24.20;;;21.10;;
15130;SDS011;7666;50.920;4.628;2022-11-20T01:51:58;24.33;;;19.57;;
15130;SDS011;7666;50.920;4.628;2022-11-20T01:55:10;24.43;;;19.63;;
15130;SDS011;7666;50.920;4.628;2022-11-20T01:58:00;24.13;;;19.83;;
15130;SDS011;7666;50.920;4.628;2022-11-20T02:00:48;22.70;;;19.60;;
15130;SDS011;7666;50.920;4.628;2022-11-20T02:03:34;23.00;;;19.33;;
15130;SDS011;7666;50.920;4.628;2022-11-20T02:06:25;21.60;;;19.33;;
15130;SDS011;7666;50.920;4.628;2022-11-20T02:09:15;25.80;;;21.03;;
15130;SDS011;7666;50.920;4.628;2022-11-20T02:12:01;27.40;;;21.07;;
15130;SDS011;7666;50.920;4.628;2022-11-20T02:14:48;28.27;;;20.17;;
15130;SDS011;7666;50.920;4.628;2022-11-20T02:17:34;24.47;;;19.97;;
15130;SDS011;7666;50.920;4.628;2022-11-20T02:20:21;23.93;;;19.33;;
15130;SDS011;7666;50.920;4.628;2022-11-20T02:26:18;25.93;;;20.47;;
15130;SDS011;7666;50.920;4.628;2022-11-20T02:29:06;27.00;;;22.47;;
15130;SDS011;7666;50.920;4.628;2022-11-20T02:31:52;23.70;;;20.27;;
15130;SDS011;7666;50.920;4.628;2022-11-20T02:34:40;26.20;;;21.80;;
15130;SDS011;7666;50.920;4.628;2022-11-20T02:37:32;25.70;;;21.27;;
15130;SDS011;7666;50.920;4.628;2022-11-20T02:40:21;28.23;;;21.60;;
15130;SDS011;7666;50.920;4.628;2022-11-20T02:43:08;27.50;;;22.57;;
15130;SDS011;7666;50.920;4.628;2022-11-20T02:45:54;26.23;;;22.37;;
15130;SDS011;7666;50.920;4.628;2022-11-20T02:48:40;27.30;;;23.20;;
15130;SDS011;7666;50.920;4.628;2022-11-20T02:51:27;26.80;;;22.53;;
15130;SDS011;7666;50.920;4.628;2022-11-20T02:54:12;27.10;;;22.80;;
15130;SDS011;7666;50.920;4.628;2022-11-20T02:56:58;30.73;;;24.03;;
15130;SDS011;7666;50.920;4.628;2022-11-20T02:59:44;30.93;;;22.80;;
15130;SDS011;7666;50.920;4.628;2022-11-20T03:02:31;29.83;;;22.90;;
15130;SDS011;7666;50.920;4.628;2022-11-20T03:05:17;34.20;;;24.27;;
15130;SDS011;7666;50.920;4.628;2022-11-20T03:08:02;28.50;;;22.40;;
15130;SDS011;7666;50.920;4.628;2022-11-20T03:10:48;27.50;;;23.07;;
15130;SDS011;7666;50.920;4.628;2022-11-20T03:13:35;30.10;;;23.03;;
15130;SDS011;7666;50.920;4.628;2022-11-20T03:16:21;32.13;;;23.60;;
15130;SDS011;7666;50.920;4.628;2022-11-20T03:19:08;29.50;;;23.83;;
15130;SDS011;7666;50.920;4.628;2022-11-20T03:21:54;33.93;;;25.07;;
15130;SDS011;7666;50.920;4.628;2022-11-20T03:24:40;40.30;;;26.60;;
15130;SDS011;7666;50.920;4.628;2022-11-20T03:27:26;34.67;;;25.37;;
15130;SDS011;7666;50.920;4.628;2022-11-20T03:30:12;34.10;;;24.53;;
15130;SDS011;7666;50.920;4.628;2022-11-20T03:32:58;30.57;;;23.77;;
15130;SDS011;7666;50.920;4.628;2022-11-20T03:35:45;34.80;;;24.80;;
15130;SDS011;7666;50.920;4.628;2022-11-20T03:38:31;33.33;;;25.57;;
15130;SDS011;7666;50.920;4.628;2022-11-20T03:41:18;35.40;;;25.63;;
15130;SDS011;7666;50.920;4.628;2022-11-20T03:44:07;35.00;;;24.70;;
15130;SDS011;7666;50.920;4.628;2022-11-20T03:46:54;34.10;;;24.80;;
15130;SDS011;7666;50.920;4.628;2022-11-20T03:49:40;37.27;;;26.10;;
15130;SDS011;7666;50.920;4.628;2022-11-20T03:52:26;38.27;;;26.90;;
15130;SDS011;7666;50.920;4.628;2022-11-20T03:55:12;38.20;;;26.53;;
15130;SDS011;7666;50.920;4.628;2022-11-20T03:57:58;34.97;;;26.23;;
15130;SDS011;7666;50.920;4.628;2022-11-20T04:00:44;35.13;;;26.73;;
15130;SDS011;7666;50.920;4.628;2022-11-20T04:03:30;32.93;;;25.90;;
15130;SDS011;7666;50.920;4.628;2022-11-20T04:06:19;37.67;;;27.47;;
15130;SDS011;7666;50.920;4.628;2022-11-20T04:09:07;36.37;;;26.87;;
15130;SDS011;7666;50.920;4.628;2022-11-20T04:11:53;39.47;;;27.73;;
15130;SDS011;7666;50.920;4.628;2022-11-20T04:14:39;37.13;;;26.53;;
15130;SDS011;7666;50.920;4.628;2022-11-20T04:17:25;33.43;;;25.83;;
15130;SDS011;7666;50.920;4.628;2022-11-20T04:20:11;30.93;;;24.40;;
15130;SDS011;7666;50.920;4.628;2022-11-20T04:22:57;32.33;;;25.37;;
15130;SDS011;7666;50.920;4.628;2022-11-20T04:25:43;39.03;;;25.87;;
15130;SDS011;7666;50.920;4.628;2022-11-20T04:28:29;36.07;;;25.63;;
15130;SDS011;7666;50.920;4.628;2022-11-20T04:31:16;38.10;;;27.13;;
15130;SDS011;7666;50.920;4.628;2022-11-20T04:34:10;37.97;;;25.73;;
15130;SDS011;7666;50.920;4.628;2022-11-20T04:36:57;36.80;;;26.30;;
15130;SDS011;7666;50.920;4.628;2022-11-20T04:39:43;36.60;;;26.70;;
15130;SDS011;7666;50.920;4.628;2022-11-20T04:42:29;31.47;;;24.03;;
15130;SDS011;7666;50.920;4.628;2022-11-20T04:45:15;32.90;;;23.30;;
15130;SDS011;7666;50.920;4.628;2022-11-20T04:48:01;30.77;;;22.97;;
15130;SDS011;7666;50.920;4.628;2022-11-20T04:50:47;28.90;;;22.13;;
15130;SDS011;7666;50.920;4.628;2022-11-20T04:53:33;29.47;;;23.07;;
15130;SDS011;7666;50.920;4.628;2022-11-20T04:56:19;29.30;;;22.83;;
15130;SDS011;7666;50.920;4.628;2022-11-20T04:59:05;28.30;;;22.30;;
15130;SDS011;7666;50.920;4.628;2022-11-20T05:01:51;26.73;;;20.43;;
15130;SDS011;7666;50.920;4.628;2022-11-20T05:04:37;22.87;;;19.77;;
15130;SDS011;7666;50.920;4.628;2022-11-20T05:07:23;28.33;;;21.17;;
15130;SDS011;7666;50.920;4.628;2022-11-20T05:10:09;30.30;;;24.73;;
15130;SDS011;7666;50.920;4.628;2022-11-20T05:12:55;31.67;;;24.23;;
15130;SDS011;7666;50.920;4.628;2022-11-20T05:15:42;28.20;;;22.70;;
15130;SDS011;7666;50.920;4.628;2022-11-20T05:18:28;28.53;;;22.20;;
15130;SDS011;7666;50.920;4.628;2022-11-20T05:21:14;27.13;;;20.87;;
15130;SDS011;7666;50.920;4.628;2022-11-20T05:24:01;32.43;;;24.43;;
15130;SDS011;7666;50.920;4.628;2022-11-20T05:26:47;32.50;;;24.73;;
15130;SDS011;7666;50.920;4.628;2022-11-20T05:29:33;29.37;;;23.43;;
15130;SDS011;7666;50.920;4.628;2022-11-20T05:32:19;36.43;;;26.07;;
15130;SDS011;7666;50.920;4.628;2022-11-20T05:35:05;31.47;;;24.70;;
15130;SDS011;7666;50.920;4.628;2022-11-20T05:37:51;33.57;;;24.50;;
15130;SDS011;7666;50.920;4.628;2022-11-20T05:40:37;30.67;;;24.33;;
15130;SDS011;7666;50.920;4.628;2022-11-20T05:43:23;31.30;;;24.10;;
15130;SDS011;7666;50.920;4.628;2022-11-20T05:46:10;31.37;;;24.23;;
15130;SDS011;7666;50.920;4.628;2022-11-20T05:48:57;32.33;;;24.97;;
15130;SDS011;7666;50.920;4.628;2022-11-20T05:51:43;35.23;;;25.07;;
15130;SDS011;7666;50.920;4.628;2022-11-20T05:54:29;33.77;;;25.20;;
15130;SDS011;7666;50.920;4.628;2022-11-20T05:57:15;39.30;;;28.13;;
15130;SDS011;7666;50.920;4.628;2022-11-20T06:00:02;40.37;;;27.83;;
15130;SDS011;7666;50.920;4.628;2022-11-20T06:02:49;39.90;;;29.87;;
15130;SDS011;7666;50.920;4.628;2022-11-20T06:05:35;38.87;;;27.97;;
15130;SDS011;7666;50.920;4.628;2022-11-20T06:08:21;40.60;;;29.27;;
15130;SDS011;7666;50.920;4.628;2022-11-20T06:11:07;37.27;;;27.27;;
15130;SDS011;7666;50.920;4.628;2022-11-20T06:13:55;36.07;;;26.87;;
15130;SDS011;7666;50.920;4.628;2022-11-20T06:16:41;37.40;;;26.43;;
15130;SDS011;7666;50.920;4.628;2022-11-20T06:19:27;36.97;;;26.43;;
15130;SDS011;7666;50.920;4.628;2022-11-20T06:22:13;37.37;;;26.77;;
15130;SDS011;7666;50.920;4.628;2022-11-20T06:24:59;37.13;;;25.83;;
15130;SDS011;7666;50.920;4.628;2022-11-20T06:27:45;37.83;;;27.33;;
15130;SDS011;7666;50.920;4.628;2022-11-20T06:30:30;37.97;;;26.80;;
15130;SDS011;7666;50.920;4.628;2022-11-20T06:33:17;37.67;;;26.37;;
15130;SDS011;7666;50.920;4.628;2022-11-20T06:36:03;38.93;;;26.30;;
15130;SDS011;7666;50.920;4.628;2022-11-20T06:38:49;35.60;;;25.80;;
15130;SDS011;7666;50.920;4.628;2022-11-20T06:41:35;38.90;;;26.73;;
15130;SDS011;7666;50.920;4.628;2022-11-20T06:44:21;37.57;;;25.93;;
15130;SDS011;7666;50.920;4.628;2022-11-20T06:47:07;37.33;;;26.23;;
15130;SDS011;7666;50.920;4.628;2022-11-20T06:49:53;35.77;;;25.70;;
15130;SDS011;7666;50.920;4.628;2022-11-20T06:52:39;37.33;;;26.50;;
15130;SDS011;7666;50.920;4.628;2022-11-20T06:55:25;40.53;;;27.03;;
15130;SDS011;7666;50.920;4.628;2022-11-20T06:58:11;36.33;;;25.80;;
15130;SDS011;7666;50.920;4.628;2022-11-20T07:00:58;36.13;;;24.67;;
15130;SDS011;7666;50.920;4.628;2022-11-20T07:03:48;35.07;;;25.13;;
15130;SDS011;7666;50.920;4.628;2022-11-20T07:06:35;34.47;;;24.80;;
15130;SDS011;7666;50.920;4.628;2022-11-20T07:09:21;38.53;;;25.07;;
15130;SDS011;7666;50.920;4.628;2022-11-20T07:12:07;38.77;;;25.30;;
15130;SDS011;7666;50.920;4.628;2022-11-20T07:14:53;42.77;;;26.80;;
15130;SDS011;7666;50.920;4.628;2022-11-20T07:17:39;42.23;;;25.87;;
15130;SDS011;7666;50.920;4.628;2022-11-20T07:20:25;43.70;;;26.90;;
15130;SDS011;7666;50.920;4.628;2022-11-20T07:23:11;50.60;;;28.17;;
15130;SDS011;7666;50.920;4.628;2022-11-20T07:25:57;51.17;;;28.27;;
15130;SDS011;7666;50.920;4.628;2022-11-20T07:28:47;55.63;;;29.57;;
15130;SDS011;7666;50.920;4.628;2022-11-20T07:31:33;50.60;;;28.80;;
15130;SDS011;7666;50.920;4.628;2022-11-20T07:34:19;51.23;;;28.27;;
15130;SDS011;7666;50.920;4.628;2022-11-20T07:37:05;57.77;;;29.10;;
15130;SDS011;7666;50.920;4.628;2022-11-20T07:39:51;60.93;;;29.70;;
15130;SDS011;7666;50.920;4.628;2022-11-20T07:42:37;52.60;;;27.93;;
15130;SDS011;7666;50.920;4.628;2022-11-20T07:45:23;62.27;;;29.67;;
15130;SDS011;7666;50.920;4.628;2022-11-20T07:48:09;67.37;;;32.20;;
15130;SDS011;7666;50.920;4.628;2022-11-20T07:50:56;72.10;;;32.17;;
15130;SDS011;7666;50.920;4.628;2022-11-20T07:53:42;72.40;;;33.47;;
15130;SDS011;7666;50.920;4.628;2022-11-20T07:56:28;62.30;;;30.70;;
15130;SDS011;7666;50.920;4.628;2022-11-20T07:59:14;66.87;;;31.73;;
15130;SDS011;7666;50.920;4.628;2022-11-20T08:02:01;62.27;;;30.87;;
15130;SDS011;7666;50.920;4.628;2022-11-20T08:04:47;65.57;;;31.27;;
15130;SDS011;7666;50.920;4.628;2022-11-20T08:07:39;72.47;;;33.03;;
15130;SDS011;7666;50.920;4.628;2022-11-20T08:10:27;72.07;;;32.23;;
15130;SDS011;7666;50.920;4.628;2022-11-20T08:13:13;68.53;;;31.63;;
15130;SDS011;7666;50.920;4.628;2022-11-20T08:16:17;68.63;;;32.87;;
15130;SDS011;7666;50.920;4.628;2022-11-20T08:19:03;69.93;;;32.70;;
15130;SDS011;7666;50.920;4.628;2022-11-20T08:21:49;68.67;;;33.40;;
15130;SDS011;7666;50.920;4.628;2022-11-20T08:24:35;65.47;;;32.53;;
15130;SDS011;7666;50.920;4.628;2022-11-20T08:27:21;68.07;;;32.73;;
15130;SDS011;7666;50.920;4.628;2022-11-20T08:30:07;65.87;;;32.87;;
15130;SDS011;7666;50.920;4.628;2022-11-20T08:32:54;73.33;;;33.57;;
15130;SDS011;7666;50.920;4.628;2022-11-20T08:35:46;72.43;;;33.20;;
15130;SDS011;7666;50.920;4.628;2022-11-20T08:38:32;71.00;;;33.50;;
15130;SDS011;7666;50.920;4.628;2022-11-20T08:41:18;74.13;;;33.40;;
15130;SDS011;7666;50.920;4.628;2022-11-20T08:44:13;74.07;;;33.63;;
15130;SDS011;7666;50.920;4.628;2022-11-20T08:46:59;72.97;;;33.60;;
15130;SDS011;7666;50.920;4.628;2022-11-20T08:49:46;74.80;;;33.37;;
15130;SDS011;7666;50.920;4.628;2022-11-20T08:52:32;71.73;;;32.73;;
15130;SDS011;7666;50.920;4.628;2022-11-20T08:55:17;66.53;;;31.90;;
15130;SDS011;7666;50.920;4.628;2022-11-20T08:58:04;66.77;;;32.93;;
15130;SDS011;7666;50.920;4.628;2022-11-20T09:00:50;80.77;;;34.80;;
15130;SDS011;7666;50.920;4.628;2022-11-20T09:03:36;75.93;;;33.20;;
15130;SDS011;7666;50.920;4.628;2022-11-20T09:06:22;76.50;;;34.23;;
15130;SDS011;7666;50.920;4.628;2022-11-20T09:09:08;64.70;;;30.77;;
15130;SDS011;7666;50.920;4.628;2022-11-20T09:11:54;78.30;;;32.90;;
15130;SDS011;7666;50.920;4.628;2022-11-20T09:14:40;71.87;;;32.83;;
15130;SDS011;7666;50.920;4.628;2022-11-20T09:17:26;75.57;;;33.33;;
15130;SDS011;7666;50.920;4.628;2022-11-20T09:20:13;71.40;;;31.67;;
15130;SDS011;7666;50.920;4.628;2022-11-20T09:23:05;74.17;;;32.17;;
15130;SDS011;7666;50.920;4.628;2022-11-20T09:25:51;68.60;;;30.63;;
15130;SDS011;7666;50.920;4.628;2022-11-20T09:28:38;76.80;;;31.50;;
15130;SDS011;7666;50.920;4.628;2022-11-20T09:31:24;71.23;;;31.33;;
15130;SDS011;7666;50.920;4.628;2022-11-20T09:34:11;74.03;;;31.53;;
15130;SDS011;7666;50.920;4.628;2022-11-20T09:36:57;70.20;;;30.70;;
15130;SDS011;7666;50.920;4.628;2022-11-20T09:39:43;69.17;;;30.93;;
15130;SDS011;7666;50.920;4.628;2022-11-20T09:45:30;71.33;;;30.43;;
15130;SDS011;7666;50.920;4.628;2022-11-20T09:48:35;68.10;;;30.97;;
15130;SDS011;7666;50.920;4.628;2022-11-20T09:54:31;63.93;;;31.37;;
15130;SDS011;7666;50.920;4.628;2022-11-20T09:57:28;60.23;;;29.90;;
15130;SDS011;7666;50.920;4.628;2022-11-20T10:00:21;66.60;;;29.73;;
15130;SDS011;7666;50.920;4.628;2022-11-20T10:06:00;62.73;;;29.80;;
15130;SDS011;7666;50.920;4.628;2022-11-20T10:15:17;62.97;;;28.17;;
15130;SDS011;7666;50.920;4.628;2022-11-20T10:18:30;57.93;;;26.80;;
15130;SDS011;7666;50.920;4.628;2022-11-20T10:24:25;55.20;;;26.43;;
15130;SDS011;7666;50.920;4.628;2022-11-20T10:27:27;58.50;;;26.97;;
15130;SDS011;7666;50.920;4.628;2022-11-20T10:30:40;56.37;;;25.90;;
15130;SDS011;7666;50.920;4.628;2022-11-20T10:33:33;49.57;;;25.47;;
15130;SDS011;7666;50.920;4.628;2022-11-20T10:39:24;44.87;;;24.53;;
15130;SDS011;7666;50.920;4.628;2022-11-20T10:42:34;44.10;;;22.97;;
15130;SDS011;7666;50.920;4.628;2022-11-20T10:45:32;41.07;;;23.23;;
15130;SDS011;7666;50.920;4.628;2022-11-20T10:48:41;42.40;;;23.70;;
15130;SDS011;7666;50.920;4.628;2022-11-20T10:51:37;41.47;;;22.20;;
15130;SDS011;7666;50.920;4.628;2022-11-20T10:57:50;44.30;;;23.87;;
15130;SDS011;7666;50.920;4.628;2022-11-20T11:01:11;37.33;;;21.03;;
15130;SDS011;7666;50.920;4.628;2022-11-20T11:04:01;37.27;;;20.47;;
15130;SDS011;7666;50.920;4.628;2022-11-20T11:06:47;37.37;;;19.83;;
15130;SDS011;7666;50.920;4.628;2022-11-20T11:09:37;35.17;;;20.10;;
15130;SDS011;7666;50.920;4.628;2022-11-20T11:12:28;31.97;;;19.07;;
15130;SDS011;7666;50.920;4.628;2022-11-20T11:15:24;26.07;;;16.70;;
15130;SDS011;7666;50.920;4.628;2022-11-20T11:18:24;22.83;;;14.03;;
15130;SDS011;7666;50.920;4.628;2022-11-20T11:21:25;18.47;;;11.93;;
15130;SDS011;7666;50.920;4.628;2022-11-20T11:24:21;14.07;;;8.47;;
15130;SDS011;7666;50.920;4.628;2022-11-20T11:27:15;15.27;;;8.90;;
15130;SDS011;7666;50.920;4.628;2022-11-20T11:30:12;15.33;;;8.00;;
15130;SDS011;7666;50.920;4.628;2022-11-20T11:33:05;11.30;;;6.73;;
15130;SDS011;7666;50.920;4.628;2022-11-20T11:35:55;11.97;;;6.30;;
15130;SDS011;7666;50.920;4.628;2022-11-20T11:38:48;9.13;;;5.17;;
15130;SDS011;7666;50.920;4.628;2022-11-20T11:41:37;7.60;;;4.70;;
15130;SDS011;7666;50.920;4.628;2022-11-20T11:50:27;7.90;;;3.70;;
15130;SDS011;7666;50.920;4.628;2022-11-20T11:53:15;7.67;;;3.47;;
15130;SDS011;7666;50.920;4.628;2022-11-20T11:56:05;5.90;;;3.30;;
15130;SDS011;7666;50.920;4.628;2022-11-20T11:58:55;6.37;;;2.93;;
15130;SDS011;7666;50.920;4.628;2022-11-20T12:01:48;6.23;;;2.97;;
15130;SDS011;7666;50.920;4.628;2022-11-20T12:04:57;6.13;;;2.70;;
15130;SDS011;7666;50.920;4.628;2022-11-20T12:14:21;3.97;;;2.30;;
15130;SDS011;7666;50.920;4.628;2022-11-20T12:17:28;3.70;;;1.90;;
15130;SDS011;7666;50.920;4.628;2022-11-20T12:20:14;6.93;;;2.60;;
15130;SDS011;7666;50.920;4.628;2022-11-20T12:23:10;6.00;;;2.03;;
15130;SDS011;7666;50.920;4.628;2022-11-20T12:26:00;4.97;;;2.13;;
15130;SDS011;7666;50.920;4.628;2022-11-20T12:28:56;7.03;;;2.30;;
15130;SDS011;7666;50.920;4.628;2022-11-20T12:44:03;5.23;;;2.40;;
15130;SDS011;7666;50.920;4.628;2022-11-20T12:50:28;3.90;;;2.30;;
15130;SDS011;7666;50.920;4.628;2022-11-20T13:09:00;10.10;;;2.93;;
15130;SDS011;7666;50.920;4.628;2022-11-20T13:11:50;5.07;;;2.80;;
15130;SDS011;7666;50.920;4.628;2022-11-20T13:20:25;5.13;;;3.00;;
15130;SDS011;7666;50.920;4.628;2022-11-20T13:23:22;6.20;;;2.90;;
15130;SDS011;7666;50.920;4.628;2022-11-20T13:26:17;5.63;;;2.70;;
15130;SDS011;7666;50.920;4.628;2022-11-20T13:29:07;6.97;;;3.50;;
15130;SDS011;7666;50.920;4.628;2022-11-20T13:32:11;4.20;;;2.50;;
15130;SDS011;7666;50.920;4.628;2022-11-20T13:35:00;7.30;;;2.97;;
15130;SDS011;7666;50.920;4.628;2022-11-20T13:37:48;5.20;;;2.87;;
15130;SDS011;7666;50.920;4.628;2022-11-20T13:43:41;6.70;;;3.23;;
15130;SDS011;7666;50.920;4.628;2022-11-20T13:46:35;4.57;;;3.23;;
15130;SDS011;7666;50.920;4.628;2022-11-20T13:49:27;5.27;;;3.00;;
15130;SDS011;7666;50.920;4.628;2022-11-20T13:58:31;5.43;;;2.90;;
15130;SDS011;7666;50.920;4.628;2022-11-20T14:01:30;6.80;;;3.50;;
15130;SDS011;7666;50.920;4.628;2022-11-20T14:04:18;6.27;;;3.40;;
15130;SDS011;7666;50.920;4.628;2022-11-20T14:07:11;7.97;;;3.60;;
15130;SDS011;7666;50.920;4.628;2022-11-20T14:09:58;7.20;;;3.70;;
15130;SDS011;7666;50.920;4.628;2022-11-20T14:12:44;5.33;;;3.60;;
15130;SDS011;7666;50.920;4.628;2022-11-20T14:15:31;4.17;;;3.07;;
15130;SDS011;7666;50.920;4.628;2022-11-20T14:18:19;5.67;;;2.97;;
15130;SDS011;7666;50.920;4.628;2022-11-20T14:21:08;5.07;;;3.27;;
15130;SDS011;7666;50.920;4.628;2022-11-20T14:24:04;5.10;;;2.90;;
15130;SDS011;7666;50.920;4.628;2022-11-20T14:26:52;3.23;;;2.40;;
15130;SDS011;7666;50.920;4.628;2022-11-20T14:29:38;3.43;;;2.30;;
15130;SDS011;7666;50.920;4.628;2022-11-20T14:32:25;3.10;;;2.07;;
15130;SDS011;7666;50.920;4.628;2022-11-20T14:35:18;4.43;;;2.53;;
15130;SDS011;7666;50.920;4.628;2022-11-20T14:38:08;3.53;;;2.20;;
15130;SDS011;7666;50.920;4.628;2022-11-20T14:41:07;5.70;;;2.73;;
15130;SDS011;7666;50.920;4.628;2022-11-20T14:44:01;3.80;;;2.20;;
15130;SDS011;7666;50.920;4.628;2022-11-20T14:46:48;3.33;;;2.30;;
15130;SDS011;7666;50.920;4.628;2022-11-20T14:49:35;3.60;;;2.40;;
15130;SDS011;7666;50.920;4.628;2022-11-20T14:52:23;5.20;;;2.30;;
15130;SDS011;7666;50.920;4.628;2022-11-20T14:55:13;6.17;;;2.20;;
15130;SDS011;7666;50.920;4.628;2022-11-20T14:58:23;3.07;;;1.70;;
15130;SDS011;7666;50.920;4.628;2022-11-20T15:01:11;2.23;;;1.90;;
15130;SDS011;7666;50.920;4.628;2022-11-20T15:04:04;3.03;;;2.00;;
15130;SDS011;7666;50.920;4.628;2022-11-20T15:06:58;2.70;;;1.80;;
15130;SDS011;7666;50.920;4.628;2022-11-20T15:09:45;2.27;;;2.07;;
15130;SDS011;7666;50.920;4.628;2022-11-20T15:12:31;3.33;;;2.53;;
15130;SDS011;7666;50.920;4.628;2022-11-20T15:15:29;2.97;;;2.20;;
15130;SDS011;7666;50.920;4.628;2022-11-20T15:21:18;3.13;;;2.37;;
15130;SDS011;7666;50.920;4.628;2022-11-20T15:24:08;4.30;;;2.50;;
15130;SDS011;7666;50.920;4.628;2022-11-20T15:26:54;3.10;;;2.73;;
15130;SDS011;7666;50.920;4.628;2022-11-20T15:29:40;5.17;;;3.03;;
15130;SDS011;7666;50.920;4.628;2022-11-20T15:32:27;3.90;;;3.23;;
15130;SDS011;7666;50.920;4.628;2022-11-20T15:35:14;5.47;;;3.70;;
15130;SDS011;7666;50.920;4.628;2022-11-20T15:38:00;5.30;;;3.97;;
15130;SDS011;7666;50.920;4.628;2022-11-20T15:40:46;5.90;;;4.43;;
15130;SDS011;7666;50.920;4.628;2022-11-20T15:43:32;6.13;;;4.07;;
15130;SDS011;7666;50.920;4.628;2022-11-20T15:46:21;7.53;;;4.60;;
15130;SDS011;7666;50.920;4.628;2022-11-20T15:49:13;7.20;;;4.23;;
15130;SDS011;7666;50.920;4.628;2022-11-20T15:52:00;7.17;;;4.13;;
15130;SDS011;7666;50.920;4.628;2022-11-20T15:54:46;8.00;;;3.63;;
15130;SDS011;7666;50.920;4.628;2022-11-20T15:57:32;6.90;;;4.20;;
15130;SDS011;7666;50.920;4.628;2022-11-20T16:00:18;8.77;;;4.07;;
15130;SDS011;7666;50.920;4.628;2022-11-20T16:03:04;7.77;;;4.00;;
15130;SDS011;7666;50.920;4.628;2022-11-20T16:05:50;6.80;;;4.03;;
15130;SDS011;7666;50.920;4.628;2022-11-20T16:08:36;7.30;;;3.80;;
15130;SDS011;7666;50.920;4.628;2022-11-20T16:11:22;9.77;;;4.47;;
15130;SDS011;7666;50.920;4.628;2022-11-20T16:14:10;8.80;;;4.30;;
15130;SDS011;7666;50.920;4.628;2022-11-20T16:17:14;9.63;;;4.00;;
15130;SDS011;7666;50.920;4.628;2022-11-20T16:20:20;9.47;;;3.83;;
15130;SDS011;7666;50.920;4.628;2022-11-20T16:23:06;8.00;;;3.67;;
15130;SDS011;7666;50.920;4.628;2022-11-20T16:25:52;10.47;;;4.17;;
15130;SDS011;7666;50.920;4.628;2022-11-20T16:28:39;9.63;;;4.13;;
15130;SDS011;7666;50.920;4.628;2022-11-20T16:31:25;11.83;;;3.70;;
15130;SDS011;7666;50.920;4.628;2022-11-20T16:34:11;11.70;;;3.87;;
15130;SDS011;7666;50.920;4.628;2022-11-20T16:36:57;12.13;;;3.90;;
15130;SDS011;7666;50.920;4.628;2022-11-20T16:39:43;9.43;;;3.20;;
15130;SDS011;7666;50.920;4.628;2022-11-20T16:42:32;12.77;;;3.43;;
15130;SDS011;7666;50.920;4.628;2022-11-20T16:45:19;11.50;;;3.77;;
15130;SDS011;7666;50.920;4.628;2022-11-20T16:48:05;11.37;;;3.40;;
15130;SDS011;7666;50.920;4.628;2022-11-20T16:50:52;20.30;;;4.23;;
15130;SDS011;7666;50.920;4.628;2022-11-20T16:53:38;12.07;;;3.17;;
15130;SDS011;7666;50.920;4.628;2022-11-20T16:56:25;14.43;;;3.30;;
15130;SDS011;7666;50.920;4.628;2022-11-20T16:59:12;15.60;;;3.20;;
15130;SDS011;7666;50.920;4.628;2022-11-20T17:01:58;14.80;;;3.47;;
15130;SDS011;7666;50.920;4.628;2022-11-20T17:04:44;11.53;;;3.10;;
15130;SDS011;7666;50.920;4.628;2022-11-20T17:07:30;17.17;;;3.73;;
15130;SDS011;7666;50.920;4.628;2022-11-20T17:10:16;15.63;;;3.43;;
15130;SDS011;7666;50.920;4.628;2022-11-20T17:13:01;14.27;;;3.30;;
15130;SDS011;7666;50.920;4.628;2022-11-20T17:15:48;13.30;;;3.30;;
15130;SDS011;7666;50.920;4.628;2022-11-20T17:18:34;14.57;;;3.07;;
15130;SDS011;7666;50.920;4.628;2022-11-20T17:21:20;12.83;;;3.03;;
15130;SDS011;7666;50.920;4.628;2022-11-20T17:24:08;12.13;;;3.07;;
15130;SDS011;7666;50.920;4.628;2022-11-20T17:26:55;9.13;;;2.30;;
15130;SDS011;7666;50.920;4.628;2022-11-20T17:29:41;11.80;;;2.07;;
15130;SDS011;7666;50.920;4.628;2022-11-20T17:32:27;8.83;;;1.97;;
15130;SDS011;7666;50.920;4.628;2022-11-20T17:35:13;7.53;;;1.70;;
15130;SDS011;7666;50.920;4.628;2022-11-20T17:37:59;5.23;;;2.10;;
15130;SDS011;7666;50.920;4.628;2022-11-20T17:40:45;8.83;;;2.10;;
15130;SDS011;7666;50.920;4.628;2022-11-20T17:43:32;7.53;;;1.53;;
15130;SDS011;7666;50.920;4.628;2022-11-20T17:46:18;7.47;;;1.47;;
15130;SDS011;7666;50.920;4.628;2022-11-20T17:49:06;5.57;;;1.20;;
15130;SDS011;7666;50.920;4.628;2022-11-20T17:51:53;7.97;;;1.63;;
15130;SDS011;7666;50.920;4.628;2022-11-20T17:54:39;6.17;;;2.00;;
15130;SDS011;7666;50.920;4.628;2022-11-20T17:57:24;5.43;;;1.50;;
15130;SDS011;7666;50.920;4.628;2022-11-20T18:00:29;5.97;;;2.00;;
15130;SDS011;7666;50.920;4.628;2022-11-20T18:03:15;6.60;;;1.73;;
15130;SDS011;7666;50.920;4.628;2022-11-20T18:06:14;5.33;;;1.47;;
15130;SDS011;7666;50.920;4.628;2022-11-20T18:09:02;8.43;;;1.80;;
15130;SDS011;7666;50.920;4.628;2022-11-20T18:11:49;6.17;;;1.50;;
15130;SDS011;7666;50.920;4.628;2022-11-20T18:14:35;7.47;;;1.83;;
15130;SDS011;7666;50.920;4.628;2022-11-20T18:17:21;5.87;;;1.57;;
15130;SDS011;7666;50.920;4.628;2022-11-20T18:20:07;5.17;;;1.47;;
15130;SDS011;7666;50.920;4.628;2022-11-20T18:22:54;5.33;;;1.73;;
15130;SDS011;7666;50.920;4.628;2022-11-20T18:25:40;6.73;;;1.70;;